Time;durP1;ratioP1;P1;durP2;ratioP2;P2;SDS_P1;SDS_P2;PMS_P1;PMS_P2;Temp;Humidity;BMP_temperature;BMP_pressure;BME280_temperature;BME280_humidity;BME280_pressure;Samples;Min_cycle;Max_cycle;Signal;HPM_P1;HPM_P2
2021/03/30 00:02:16;;;;;;;;;;;16.10;38.80;;;;;;4951588;28;74876;-66
2021/03/30 00:04:42;;;;;;;;;;;16.10;38.90;;;;;;4951221;28;75288;-65
2021/03/30 00:07:07;;;;;;;;;;;16.10;39.20;;;;;;4951569;28;74736;-66
2021/03/30 00:09:33;;;;;;;;;;;16.10;39.00;;;;;;4951280;28;75092;-64
2021/03/30 00:12:00;;;;;;;;;;;16.00;38.90;;;;;;4951357;28;74425;-66
2021/03/30 00:14:25;;;;;;;;;;;16.00;39.10;;;;;;4951392;28;75073;-67
2021/03/30 00:16:51;;;;;;;;;;;16.00;39.40;;;;;;4949622;28;76365;-67
2021/03/30 00:19:16;;;;;;;;;;;16.00;39.30;;;;;;4951365;28;74998;-67
2021/03/30 00:21:42;;;;;;;;;;;15.90;39.40;;;;;;4948141;28;76375;-66
2021/03/30 00:24:08;;;;;;;;;;;15.90;39.40;;;;;;4950041;28;77791;-66
2021/03/30 00:26:35;;;;;;;;;;;15.90;39.20;;;;;;4949340;28;75249;-66
2021/03/30 00:29:04;;;;;;;;;;;15.90;39.40;;;;;;4951266;28;75178;-66
2021/03/30 00:31:30;;;;;;;;;;;15.90;39.30;;;;;;4951001;28;75251;-66
2021/03/30 00:33:55;;;;;;;;;;;15.90;39.70;;;;;;4950818;28;75019;-66
2021/03/30 00:36:21;;;;;;;;;;;15.90;39.70;;;;;;4951133;28;75688;-67
2021/03/30 00:38:46;;;;;;;;;;;15.90;39.40;;;;;;4950986;28;75112;-67
2021/03/30 00:41:12;;;;;;;;;;;15.90;39.40;;;;;;4951269;28;75776;-66
2021/03/30 00:43:38;;;;;;;;;;;15.90;39.60;;;;;;4950805;28;76162;-67
2021/03/30 00:46:11;;;;;;;;;;;15.90;39.60;;;;;;4949294;28;77502;-65
2021/03/30 00:48:38;;;;;;;;;;;15.90;39.50;;;;;;4949307;28;76635;-66
2021/03/30 00:51:03;;;;;;;;;;;15.90;39.20;;;;;;4950469;28;75166;-66
2021/03/30 00:53:29;;;;;;;;;;;15.90;39.30;;;;;;4951328;28;74535;-66
2021/03/30 00:55:55;;;;;;;;;;;15.90;39.40;;;;;;4949039;28;76717;-67
2021/03/30 00:58:20;;;;;;;;;;;15.90;39.30;;;;;;4950819;28;75255;-66
2021/03/30 01:00:46;;;;;;;;;;;15.90;39.40;;;;;;4953726;28;75048;-66
2021/03/30 01:03:11;;;;;;;;;;;15.90;39.40;;;;;;4949487;28;77369;-67
2021/03/30 01:05:37;;;;;;;;;;;15.90;39.30;;;;;;4950503;28;76289;-67
2021/03/30 01:08:08;;;;;;;;;;;15.90;39.30;;;;;;4950573;28;76164;-67
2021/03/30 01:10:46;;;;;;;;;;;15.90;39.50;;;;;;4950846;28;75030;-67
2021/03/30 01:13:30;;;;;;;;;;;15.90;39.40;;;;;;4948966;28;77289;-66
2021/03/30 01:16:03;;;;;;;;;;;15.90;39.50;;;;;;4951072;28;74679;-65
2021/03/30 01:18:32;;;;;;;;;;;15.90;39.20;;;;;;4950327;28;75182;-67
2021/03/30 01:21:16;;;;;;;;;;;15.90;39.20;;;;;;4950602;28;75162;-67
2021/03/30 01:23:56;;;;;;;;;;;15.90;39.40;;;;;;4950486;28;75124;-66
2021/03/30 01:26:22;;;;;;;;;;;15.90;39.20;;;;;;4950700;28;75278;-67
2021/03/30 01:28:47;;;;;;;;;;;15.90;39.10;;;;;;4950308;28;76304;-67
2021/03/30 01:31:14;;;;;;;;;;;15.80;39.20;;;;;;4950113;28;74614;-65
2021/03/30 01:33:41;;;;;;;;;;;15.90;39.30;;;;;;4950077;28;74548;-67
2021/03/30 01:36:07;;;;;;;;;;;15.90;39.30;;;;;;4949921;28;75237;-67
2021/03/30 01:38:32;;;;;;;;;;;15.80;39.30;;;;;;4948798;28;77555;-67
2021/03/30 01:40:58;;;;;;;;;;;15.80;39.30;;;;;;4950510;28;76402;-66
2021/03/30 01:43:25;;;;;;;;;;;15.80;39.30;;;;;;4950079;28;75287;-66
2021/03/30 01:45:51;;;;;;;;;;;15.80;39.20;;;;;;4950286;28;75170;-66
2021/03/30 01:48:17;;;;;;;;;;;15.80;39.30;;;;;;4950233;28;74463;-66
2021/03/30 01:50:44;;;;;;;;;;;15.80;39.20;;;;;;4950383;28;75206;-67
2021/03/30 01:53:10;;;;;;;;;;;15.90;39.50;;;;;;4949941;28;75168;-67
2021/03/30 01:55:36;;;;;;;;;;;15.80;39.50;;;;;;4948436;28;78072;-66
2021/03/30 01:58:02;;;;;;;;;;;15.80;39.50;;;;;;4949382;28;75448;-65
2021/03/30 02:00:32;;;;;;;;;;;15.80;39.30;;;;;;4949915;28;75112;-65
2021/03/30 02:02:57;;;;;;;;;;;15.80;39.40;;;;;;4949892;28;75131;-66
2021/03/30 02:05:24;;;;;;;;;;;15.80;39.20;;;;;;4949920;28;74420;-65
2021/03/30 02:07:54;;;;;;;;;;;15.80;39.20;;;;;;4950307;28;74493;-66
2021/03/30 02:10:31;;;;;;;;;;;15.80;39.20;;;;;;4949496;28;75086;-66
2021/03/30 02:12:59;;;;;;;;;;;15.70;39.20;;;;;;4948682;28;78265;-65
2021/03/30 02:15:24;;;;;;;;;;;15.70;39.40;;;;;;4949615;28;74439;-67
2021/03/30 02:18:06;;;;;;;;;;;15.70;39.30;;;;;;4949677;28;75065;-67
2021/03/30 02:20:35;;;;;;;;;;;15.70;39.40;;;;;;4950076;28;74332;-66
2021/03/30 02:23:03;;;;;;;;;;;15.60;39.60;;;;;;4949588;28;74581;-66
2021/03/30 02:25:30;;;;;;;;;;;15.60;39.60;;;;;;4949647;28;75624;-65
2021/03/30 02:27:58;;;;;;;;;;;15.60;39.60;;;;;;4949403;28;75199;-66
2021/03/30 02:30:24;;;;;;;;;;;15.60;39.60;;;;;;4949484;28;75095;-65
2021/03/30 02:32:51;;;;;;;;;;;15.60;39.60;;;;;;4949710;28;75283;-66
2021/03/30 02:35:18;;;;;;;;;;;15.60;39.80;;;;;;4947885;28;76155;-66
2021/03/30 02:37:44;;;;;;;;;;;15.60;39.70;;;;;;4947779;28;76936;-67
2021/03/30 02:40:13;;;;;;;;;;;15.50;39.60;;;;;;4947907;28;77510;-66
2021/03/30 02:42:39;;;;;;;;;;;15.50;39.80;;;;;;4947565;28;77258;-66
2021/03/30 02:45:06;;;;;;;;;;;15.50;39.90;;;;;;4950505;28;75094;-65
2021/03/30 02:47:32;;;;;;;;;;;15.50;40.10;;;;;;4952891;28;74390;-66
2021/03/30 02:49:59;;;;;;;;;;;15.50;39.90;;;;;;4950792;28;77785;-65
2021/03/30 02:52:25;;;;;;;;;;;15.50;39.90;;;;;;4953399;28;74425;-66
2021/03/30 02:54:52;;;;;;;;;;;15.40;39.90;;;;;;4952353;28;74532;-65
2021/03/30 02:57:18;;;;;;;;;;;15.40;39.90;;;;;;4954910;28;75232;-65
2021/03/30 02:59:45;;;;;;;;;;;15.40;39.80;;;;;;4953083;28;77445;-66
2021/03/30 03:02:12;;;;;;;;;;;15.40;39.90;;;;;;4950605;28;76789;-65
2021/03/30 03:04:37;;;;;;;;;;;15.40;40.00;;;;;;4950526;28;76063;-65
2021/03/30 03:07:03;;;;;;;;;;;15.40;40.20;;;;;;4950384;28;75383;-66
2021/03/30 03:09:29;;;;;;;;;;;15.40;39.90;;;;;;4950547;28;77180;-66
2021/03/30 03:11:55;;;;;;;;;;;15.40;40.00;;;;;;4950651;28;75282;-66
2021/03/30 03:14:21;;;;;;;;;;;15.30;40.10;;;;;;4952212;28;75192;-65
2021/03/30 03:16:47;;;;;;;;;;;15.30;40.50;;;;;;4952229;28;75209;-66
2021/03/30 03:19:13;;;;;;;;;;;15.30;40.20;;;;;;4952224;28;75169;-66
2021/03/30 03:21:39;;;;;;;;;;;15.40;40.20;;;;;;4950538;28;77175;-66
2021/03/30 03:24:08;;;;;;;;;;;15.40;40.20;;;;;;4950396;28;75406;-64
2021/03/30 03:26:34;;;;;;;;;;;15.40;40.20;;;;;;4949993;28;75911;-66
2021/03/30 03:29:00;;;;;;;;;;;15.40;40.20;;;;;;4952123;28;75466;-67
2021/03/30 03:31:27;;;;;;;;;;;15.40;40.10;;;;;;4951727;28;75266;-67
2021/03/30 03:33:52;;;;;;;;;;;15.40;39.90;;;;;;4951780;28;74954;-66
2021/03/30 03:36:18;;;;;;;;;;;15.40;40.10;;;;;;4951628;28;75460;-67
2021/03/30 03:38:44;;;;;;;;;;;15.40;40.10;;;;;;4951875;28;75177;-67
2021/03/30 03:41:13;;;;;;;;;;;15.40;40.00;;;;;;4950541;28;75374;-67
2021/03/30 03:43:39;;;;;;;;;;;15.40;40.00;;;;;;4951940;28;75253;-67
2021/03/30 03:46:05;;;;;;;;;;;15.40;40.10;;;;;;4951851;28;75047;-67
2021/03/30 03:48:30;;;;;;;;;;;15.40;40.30;;;;;;4951813;28;75051;-66
2021/03/30 03:51:01;;;;;;;;;;;15.40;40.30;;;;;;4951582;28;75151;-67
2021/03/30 03:53:28;;;;;;;;;;;15.40;40.10;;;;;;4949791;28;76387;-66
2021/03/30 03:55:55;;;;;;;;;;;15.40;40.20;;;;;;4949787;28;75441;-67
2021/03/30 03:58:23;;;;;;;;;;;15.30;40.30;;;;;;4951123;28;75096;-66
2021/03/30 04:00:49;;;;;;;;;;;15.30;40.40;;;;;;4951691;28;75293;-66
2021/03/30 04:03:37;;;;;;;;;;;15.30;40.50;;;;;;4949845;28;77911;-66
2021/03/30 04:06:08;;;;;;;;;;;15.30;40.50;;;;;;4951658;28;74704;-68
2021/03/30 04:08:35;;;;;;;;;;;15.30;40.50;;;;;;4949352;28;75198;-66
2021/03/30 04:11:03;;;;;;;;;;;15.30;40.40;;;;;;4951704;28;75428;-67
2021/03/30 04:13:31;;;;;;;;;;;15.20;40.40;;;;;;4951691;28;75258;-66
2021/03/30 04:16:01;;;;;;;;;;;15.20;40.40;;;;;;4949945;28;76039;-67
2021/03/30 04:18:26;;;;;;;;;;;15.30;40.60;;;;;;4951640;28;74938;-68
2021/03/30 04:20:52;;;;;;;;;;;15.20;40.60;;;;;;4951894;28;75193;-66
2021/03/30 04:23:22;;;;;;;;;;;15.20;40.60;;;;;;4949904;28;77497;-67
2021/03/30 04:25:48;;;;;;;;;;;15.20;40.60;;;;;;4951421;28;75126;-65
2021/03/30 04:28:14;;;;;;;;;;;15.20;40.60;;;;;;4951517;28;74338;-67
2021/03/30 04:30:39;;;;;;;;;;;15.20;40.60;;;;;;4951144;28;75135;-66
2021/03/30 04:33:05;;;;;;;;;;;15.10;40.60;;;;;;4949758;28;76530;-67
2021/03/30 04:35:30;;;;;;;;;;;15.20;40.70;;;;;;4950547;28;75145;-68
2021/03/30 04:37:56;;;;;;;;;;;15.20;40.70;;;;;;4951092;28;76583;-66
2021/03/30 04:40:23;;;;;;;;;;;15.20;40.70;;;;;;4951105;28;75237;-66
2021/03/30 04:42:48;;;;;;;;;;;15.20;40.70;;;;;;4951149;28;75001;-66
2021/03/30 04:45:14;;;;;;;;;;;15.20;40.60;;;;;;4950554;28;76123;-67
2021/03/30 04:47:39;;;;;;;;;;;15.20;40.60;;;;;;4951358;28;75216;-67
2021/03/30 04:50:06;;;;;;;;;;;15.20;40.60;;;;;;4951199;28;74997;-66
2021/03/30 04:52:32;;;;;;;;;;;15.20;40.60;;;;;;4951311;28;77406;-67
2021/03/30 04:54:57;;;;;;;;;;;15.20;40.50;;;;;;4951687;28;75305;-67
2021/03/30 04:57:23;;;;;;;;;;;15.20;40.50;;;;;;4949316;28;75901;-67
2021/03/30 04:59:48;;;;;;;;;;;15.20;40.60;;;;;;4950859;28;75851;-66
2021/03/30 05:02:14;;;;;;;;;;;15.20;40.60;;;;;;4950856;28;75204;-67
2021/03/30 05:04:39;;;;;;;;;;;15.20;40.60;;;;;;4949261;28;75563;-66
2021/03/30 05:07:05;;;;;;;;;;;15.20;40.60;;;;;;4950111;28;75175;-67
2021/03/30 05:09:31;;;;;;;;;;;15.20;40.60;;;;;;4950641;28;74992;-68
2021/03/30 05:11:56;;;;;;;;;;;15.20;40.60;;;;;;4950685;28;74963;-66
2021/03/30 05:14:22;;;;;;;;;;;15.10;40.60;;;;;;4950786;28;75171;-67
2021/03/30 05:16:48;;;;;;;;;;;15.20;40.70;;;;;;4950977;28;75203;-67
2021/03/30 05:19:13;;;;;;;;;;;15.10;40.80;;;;;;4951613;28;74391;-64
2021/03/30 05:21:39;;;;;;;;;;;15.20;40.80;;;;;;4950603;28;75136;-64
2021/03/30 05:24:05;;;;;;;;;;;15.20;40.80;;;;;;4950820;28;75169;-66
2021/03/30 05:26:30;;;;;;;;;;;15.20;40.70;;;;;;4950878;28;75154;-64
2021/03/30 05:28:56;;;;;;;;;;;15.20;40.80;;;;;;4951073;28;75273;-66
2021/03/30 05:31:21;;;;;;;;;;;15.10;41.20;;;;;;4949246;28;76778;-68
2021/03/30 05:33:47;;;;;;;;;;;15.20;41.60;;;;;;4949072;28;76856;-66
2021/03/30 05:36:14;;;;;;;;;;;15.10;41.40;;;;;;4950544;28;76038;-65
2021/03/30 05:38:39;;;;;;;;;;;15.10;41.90;;;;;;4950281;28;75284;-66
2021/03/30 05:41:06;;;;;;;;;;;15.10;41.60;;;;;;4950906;28;74402;-65
2021/03/30 05:43:32;;;;;;;;;;;15.00;41.50;;;;;;4948842;28;76873;-65
2021/03/30 05:46:01;;;;;;;;;;;15.00;41.40;;;;;;4950422;28;75201;-68
2021/03/30 05:48:27;;;;;;;;;;;15.00;41.30;;;;;;4950208;28;75079;-67
2021/03/30 05:50:53;;;;;;;;;;;15.00;41.30;;;;;;4950651;28;75060;-66
2021/03/30 05:53:19;;;;;;;;;;;14.90;41.50;;;;;;4948992;28;75252;-66
2021/03/30 05:55:46;;;;;;;;;;;15.00;41.90;;;;;;4949880;28;74757;-65
2021/03/30 05:58:12;;;;;;;;;;;15.00;42.30;;;;;;4950425;28;74633;-64
2021/03/30 06:00:47;;;;;;;;;;;14.90;41.90;;;;;;4950568;28;74737;-67
2021/03/30 06:03:14;;;;;;;;;;;15.00;41.80;;;;;;4950614;28;74507;-64
2021/03/30 06:05:40;;;;;;;;;;;15.00;42.00;;;;;;4950088;28;74643;-64
2021/03/30 06:08:05;;;;;;;;;;;14.90;42.20;;;;;;4950178;28;75183;-65
2021/03/30 06:10:32;;;;;;;;;;;14.90;42.00;;;;;;4948503;28;76637;-65
2021/03/30 06:12:58;;;;;;;;;;;15.00;42.10;;;;;;4950098;28;74767;-65
2021/03/30 06:15:29;;;;;;;;;;;15.00;42.00;;;;;;4949869;28;74417;-65
2021/03/30 06:17:55;;;;;;;;;;;15.00;41.90;;;;;;4950040;28;75146;-66
2021/03/30 06:20:26;;;;;;;;;;;14.90;41.80;;;;;;4952554;28;75107;-65
2021/03/30 06:22:53;;;;;;;;;;;14.90;41.80;;;;;;4952372;28;76365;-65
2021/03/30 06:25:38;;;;;;;;;;;14.90;41.80;;;;;;4952828;28;75400;-65
2021/03/30 06:28:12;;;;;;;;;;;15.00;41.40;;;;;;4952996;28;75166;-64
2021/03/30 06:30:39;;;;;;;;;;;14.90;41.40;;;;;;4952846;28;74596;-66
2021/03/30 06:33:05;;;;;;;;;;;14.90;41.40;;;;;;4952883;28;75089;-64
2021/03/30 06:35:31;;;;;;;;;;;14.90;41.40;;;;;;4950893;28;77134;-64
2021/03/30 06:37:57;;;;;;;;;;;14.90;41.40;;;;;;4953358;28;74317;-64
2021/03/30 06:40:33;;;;;;;;;;;14.90;41.30;;;;;;4952473;28;74616;-64
2021/03/30 06:43:11;;;;;;;;;;;15.00;41.20;;;;;;4952913;28;74470;-64
2021/03/30 06:45:37;;;;;;;;;;;15.00;41.10;;;;;;4952407;28;74953;-67
2021/03/30 06:48:03;;;;;;;;;;;15.10;41.10;;;;;;4952282;28;74830;-65
2021/03/30 06:50:29;;;;;;;;;;;15.10;40.90;;;;;;4953666;28;75297;-65
2021/03/30 06:53:07;;;;;;;;;;;15.20;40.90;;;;;;4952577;28;75110;-65
2021/03/30 06:55:33;;;;;;;;;;;15.20;40.70;;;;;;4950949;28;78128;-65
2021/03/30 06:58:02;;;;;;;;;;;15.30;40.70;;;;;;4951963;28;75212;-68
2021/03/30 07:00:36;;;;;;;;;;;15.30;40.60;;;;;;4950661;28;78351;-65
2021/03/30 07:03:04;;;;;;;;;;;15.30;40.60;;;;;;4952324;28;74476;-67
2021/03/30 07:05:30;;;;;;;;;;;15.30;40.50;;;;;;4952178;28;75491;-65
2021/03/30 07:07:57;;;;;;;;;;;15.40;40.30;;;;;;4952176;28;75376;-65
2021/03/30 07:10:23;;;;;;;;;;;15.40;40.30;;;;;;4952188;28;75254;-65
2021/03/30 07:12:50;;;;;;;;;;;15.50;40.20;;;;;;4951944;28;75177;-66
2021/03/30 07:15:16;;;;;;;;;;;15.50;39.90;;;;;;4951430;28;74995;-65
2021/03/30 07:17:42;;;;;;;;;;;15.60;39.90;;;;;;4951929;28;75131;-64
2021/03/30 07:20:09;;;;;;;;;;;15.60;39.90;;;;;;4952023;28;75107;-65
2021/03/30 07:22:37;;;;;;;;;;;15.70;39.70;;;;;;4949869;28;75470;-64
2021/03/30 07:25:04;;;;;;;;;;;15.80;39.50;;;;;;4952207;28;75204;-65
2021/03/30 07:27:31;;;;;;;;;;;15.90;39.50;;;;;;4951422;28;75197;-66
2021/03/30 07:29:59;;;;;;;;;;;16.00;39.40;;;;;;4951738;28;74512;-67
2021/03/30 07:32:45;;;;;;;;;;;16.10;39.20;;;;;;4950155;28;76950;-72
2021/03/30 07:35:12;;;;;;;;;;;16.30;38.90;;;;;;4959889;28;74591;-68
2021/03/30 07:37:47;;;;;;;;;;;16.40;38.60;;;;;;4951399;28;75295;-64
2021/03/30 07:40:14;;;;;;;;;;;16.50;38.70;;;;;;4951771;28;75073;-66
2021/03/30 07:42:41;;;;;;;;;;;16.70;38.40;;;;;;4950249;28;78037;-65
2021/03/30 07:45:07;;;;;;;;;;;16.80;37.90;;;;;;4949920;28;78626;-65
2021/03/30 07:47:34;;;;;;;;;;;16.90;38.00;;;;;;4951731;28;75171;-70
2021/03/30 07:49:59;;;;;;;;;;;16.90;37.60;;;;;;4951613;28;75662;-69
2021/03/30 07:52:27;;;;;;;;;;;17.00;37.30;;;;;;4951636;28;74971;-68
2021/03/30 07:55:12;;;;;;;;;;;17.10;37.40;;;;;;4949862;28;78025;-72
2021/03/30 07:57:56;;;;;;;;;;;17.30;37.00;;;;;;4951583;28;75126;-66
2021/03/30 08:00:31;;;;;;;;;;;17.40;36.80;;;;;;4951800;28;75226;-65
2021/03/30 08:02:57;;;;;;;;;;;17.50;36.60;;;;;;4949913;28;75891;-67
2021/03/30 08:05:26;;;;;;;;;;;17.70;36.50;;;;;;4951341;28;75239;-68
2021/03/30 08:07:56;;;;;;;;;;;17.80;36.30;;;;;;4951532;28;74544;-65
2021/03/30 08:10:32;;;;;;;;;;;17.90;36.00;;;;;;4951197;28;75077;-65
2021/03/30 08:13:16;;;;;;;;;;;18.00;36.10;;;;;;4951389;28;74342;-66
2021/03/30 08:15:43;;;;;;;;;;;18.00;35.90;;;;;;4949601;28;76532;-67
2021/03/30 08:18:10;;;;;;;;;;;18.10;35.80;;;;;;4950790;28;74700;-66
2021/03/30 08:20:54;;;;;;;;;;;18.20;35.60;;;;;;4951643;28;75232;-65
2021/03/30 08:23:20;;;;;;;;;;;18.20;35.60;;;;;;4951716;28;74367;-65
2021/03/30 08:25:47;;;;;;;;;;;18.20;35.30;;;;;;4951169;28;75922;-67
2021/03/30 08:28:32;;;;;;;;;;;18.30;35.50;;;;;;4951680;28;74943;-68
2021/03/30 08:30:58;;;;;;;;;;;18.40;35.50;;;;;;4949465;28;77848;-69
2021/03/30 08:33:24;;;;;;;;;;;18.50;35.20;;;;;;4951168;28;74670;-66
2021/03/30 08:35:50;;;;;;;;;;;18.50;35.20;;;;;;4949520;28;75846;-69
2021/03/30 08:38:34;;;;;;;;;;;18.60;35.10;;;;;;4952023;28;74541;-66
2021/03/30 08:41:00;;;;;;;;;;;18.70;35.00;;;;;;4951729;28;75179;-65
2021/03/30 08:43:26;;;;;;;;;;;18.80;34.80;;;;;;4949892;28;74931;-65
2021/03/30 08:46:12;;;;;;;;;;;18.80;34.80;;;;;;4950189;28;77116;-65
2021/03/30 08:48:38;;;;;;;;;;;18.90;34.80;;;;;;4951154;28;75452;-67
2021/03/30 08:51:05;;;;;;;;;;;19.00;34.30;;;;;;4951928;28;75556;-66
2021/03/30 08:53:31;;;;;;;;;;;19.00;34.10;;;;;;4949423;28;75778;-66
2021/03/30 08:55:57;;;;;;;;;;;19.10;34.10;;;;;;4949447;28;77687;-65
2021/03/30 08:58:27;;;;;;;;;;;19.20;34.30;;;;;;4948932;28;77281;-66
2021/03/30 09:00:54;;;;;;;;;;;19.30;33.80;;;;;;4949601;28;77915;-66
2021/03/30 09:03:30;;;;;;;;;;;19.40;33.70;;;;;;5071187;27;74388;-74
2021/03/30 09:05:56;;;;;;;;;;;19.40;33.70;;;;;;5068570;27;75208;-74
2021/03/30 09:08:39;;;;;;;;;;;19.50;33.60;;;;;;5102997;27;75328;-71
2021/03/30 09:11:14;;;;;;;;;;;19.50;33.70;;;;;;5068486;27;74618;-72
2021/03/30 09:13:40;;;;;;;;;;;19.60;33.30;;;;;;5070027;27;75666;-73
2021/03/30 09:16:08;;;;;;;;;;;19.70;33.10;;;;;;5068222;27;75641;-72
2021/03/30 09:18:34;;;;;;;;;;;19.80;33.10;;;;;;5068400;27;76457;-73
2021/03/30 09:21:14;;;;;;;;;;;19.90;32.90;;;;;;5069544;27;75221;-73
2021/03/30 09:23:41;;;;;;;;;;;19.90;32.70;;;;;;5068082;27;74507;-73
2021/03/30 09:26:10;;;;;;;;;;;19.90;32.80;;;;;;5069558;27;75180;-72
2021/03/30 09:28:36;;;;;;;;;;;20.00;32.60;;;;;;5068295;27;74701;-74
2021/03/30 09:31:01;;;;;;;;;;;20.00;32.40;;;;;;5067819;27;77402;-72
2021/03/30 09:33:27;;;;;;;;;;;20.00;32.40;;;;;;5067435;27;77372;-72
2021/03/30 09:35:52;;;;;;;;;;;20.10;32.50;;;;;;5067691;27;75367;-72
2021/03/30 09:38:19;;;;;;;;;;;20.30;32.40;;;;;;5067778;27;75876;-73
2021/03/30 09:40:45;;;;;;;;;;;20.40;32.20;;;;;;5067947;27;77029;-74
2021/03/30 09:43:12;;;;;;;;;;;20.40;31.80;;;;;;5069838;27;75394;-74
2021/03/30 09:45:38;;;;;;;;;;;20.50;32.00;;;;;;5067738;27;78103;-73
2021/03/30 09:48:05;;;;;;;;;;;20.60;31.90;;;;;;5067824;27;77656;-73
2021/03/30 09:50:31;;;;;;;;;;;20.70;31.80;;;;;;5067739;27;77131;-74
2021/03/30 09:53:01;;;;;;;;;;;20.80;31.20;;;;;;5069193;27;75270;-74
2021/03/30 09:55:32;;;;;;;;;;;20.90;31.00;;;;;;5069165;27;75057;-74
2021/03/30 09:58:04;;;;;;;;;;;20.90;31.00;;;;;;5069129;27;75700;-73
2021/03/30 10:00:31;;;;;;;;;;;20.90;31.40;;;;;;5069093;27;75169;-73
2021/03/30 10:02:57;;;;;;;;;;;21.00;31.10;;;;;;5067201;27;77026;-75
2021/03/30 10:05:23;;;;;;;;;;;21.10;30.90;;;;;;5069066;27;75107;-73
2021/03/30 10:07:49;;;;;;;;;;;21.10;30.70;;;;;;5067571;27;77262;-72
2021/03/30 10:10:15;;;;;;;;;;;21.20;30.80;;;;;;5069088;27;74356;-72
2021/03/30 10:12:48;;;;;;;;;;;21.30;30.80;;;;;;5065776;27;77644;-73
2021/03/30 10:15:14;;;;;;;;;;;21.30;30.70;;;;;;5054921;28;75172;-72
2021/03/30 10:17:40;;;;;;;;;;;21.40;30.70;;;;;;5056246;28;74372;-73
2021/03/30 10:20:06;;;;;;;;;;;21.40;30.90;;;;;;5053502;28;77323;-75
2021/03/30 10:22:35;;;;;;;;;;;21.50;30.40;;;;;;5053853;28;77371;-73
2021/03/30 10:25:06;;;;;;;;;;;21.60;30.30;;;;;;5053333;28;77811;-75
2021/03/30 10:27:34;;;;;;;;;;;21.70;30.20;;;;;;5055414;28;74560;-74
2021/03/30 10:30:00;;;;;;;;;;;21.80;30.00;;;;;;5053293;28;76443;-74
2021/03/30 10:32:26;;;;;;;;;;;21.90;30.00;;;;;;5053447;28;78016;-74
2021/03/30 10:34:51;;;;;;;;;;;21.90;29.90;;;;;;5054798;28;74384;-74
2021/03/30 10:37:18;;;;;;;;;;;22.00;30.10;;;;;;5052974;28;75399;-72
2021/03/30 10:39:44;;;;;;;;;;;22.20;29.40;;;;;;5052926;28;77661;-73
2021/03/30 10:42:14;;;;;;;;;;;22.30;29.20;;;;;;5052546;28;77179;-73
2021/03/30 10:44:40;;;;;;;;;;;22.30;29.20;;;;;;5054458;28;75266;-73
2021/03/30 10:47:18;;;;;;;;;;;22.40;29.30;;;;;;5053379;28;75952;-73
2021/03/30 10:49:44;;;;;;;;;;;22.50;29.10;;;;;;5053356;28;75259;-73
2021/03/30 10:52:15;;;;;;;;;;;22.50;29.10;;;;;;5052902;28;74474;-75
2021/03/30 10:54:41;;;;;;;;;;;22.70;28.80;;;;;;5052233;28;77977;-74
2021/03/30 10:57:08;;;;;;;;;;;22.80;28.60;;;;;;5069846;27;77990;-75
2021/03/30 10:59:33;;;;;;;;;;;22.80;28.20;;;;;;5053043;28;76650;-74
2021/03/30 11:01:59;;;;;;;;;;;22.90;28.50;;;;;;5053111;28;77339;-73
2021/03/30 11:04:24;;;;;;;;;;;22.90;28.20;;;;;;5052748;28;75752;-73
2021/03/30 11:06:50;;;;;;;;;;;23.00;28.40;;;;;;5052637;28;77164;-74
2021/03/30 11:09:17;;;;;;;;;;;23.30;27.80;;;;;;5054451;28;75045;-73
2021/03/30 11:11:43;;;;;;;;;;;23.40;27.90;;;;;;5053007;28;74526;-73
2021/03/30 11:14:09;;;;;;;;;;;23.50;27.50;;;;;;5054794;28;74569;-74
2021/03/30 11:16:34;;;;;;;;;;;23.60;27.50;;;;;;5052415;28;77646;-73
2021/03/30 11:19:00;;;;;;;;;;;23.70;26.90;;;;;;5052915;28;77912;-75
2021/03/30 11:21:25;;;;;;;;;;;23.80;27.20;;;;;;5053151;28;77525;-74
2021/03/30 11:23:59;;;;;;;;;;;23.90;27.00;;;;;;5052277;28;77475;-74
2021/03/30 11:26:24;;;;;;;;;;;24.10;26.70;;;;;;5052963;28;74561;-73
2021/03/30 11:28:50;;;;;;;;;;;24.30;26.80;;;;;;5052307;28;75690;-74
2021/03/30 11:34:07;;;;;;;;;;;24.60;26.50;;;;;;5051978;28;74973;-73
2021/03/30 11:36:39;;;;;;;;;;;24.80;25.90;;;;;;5052896;28;77585;-75
2021/03/30 11:39:05;;;;;;;;;;;24.90;26.20;;;;;;5052764;28;78271;-74
2021/03/30 11:41:30;;;;;;;;;;;24.90;26.20;;;;;;5054249;28;75003;-73
2021/03/30 11:43:56;;;;;;;;;;;25.10;26.10;;;;;;5054097;28;75050;-74
2021/03/30 11:46:22;;;;;;;;;;;25.10;25.70;;;;;;5054315;28;74465;-75
2021/03/30 11:48:47;;;;;;;;;;;25.20;25.50;;;;;;5053989;27;74941;-73
2021/03/30 11:51:13;;;;;;;;;;;25.40;25.70;;;;;;5052433;28;77961;-74
2021/03/30 11:53:43;;;;;;;;;;;25.70;25.30;;;;;;5052262;28;76052;-74
2021/03/30 11:56:09;;;;;;;;;;;25.90;25.20;;;;;;5052091;28;77605;-74
2021/03/30 11:58:35;;;;;;;;;;;26.10;25.20;;;;;;5053422;28;75019;-73
2021/03/30 12:01:01;;;;;;;;;;;26.30;24.90;;;;;;5053789;28;75532;-75
2021/03/30 12:03:27;;;;;;;;;;;26.50;24.90;;;;;;5051554;28;76458;-74
2021/03/30 12:05:52;;;;;;;;;;;26.60;24.30;;;;;;5053604;28;75588;-74
2021/03/30 12:08:18;;;;;;;;;;;26.70;24.50;;;;;;5051841;28;76245;-74
2021/03/30 12:10:43;;;;;;;;;;;26.70;24.70;;;;;;5054100;28;74371;-74
2021/03/30 12:13:09;;;;;;;;;;;26.70;24.20;;;;;;5053262;28;76380;-74
2021/03/30 12:15:35;;;;;;;;;;;26.70;24.20;;;;;;5053163;28;76516;-74
2021/03/30 12:18:00;;;;;;;;;;;26.60;24.60;;;;;;5053291;28;75254;-74
2021/03/30 12:20:26;;;;;;;;;;;26.60;23.60;;;;;;5053146;28;75393;-72
2021/03/30 12:22:52;;;;;;;;;;;26.50;23.30;;;;;;5051477;28;78459;-73
2021/03/30 12:25:17;;;;;;;;;;;26.40;22.90;;;;;;5052723;28;75167;-74
2021/03/30 12:27:43;;;;;;;;;;;26.40;23.50;;;;;;5052931;28;76176;-74
2021/03/30 12:30:09;;;;;;;;;;;26.50;23.80;;;;;;5053276;28;75177;-73
2021/03/30 12:32:34;;;;;;;;;;;26.50;23.40;;;;;;5052996;28;74599;-73
2021/03/30 12:35:00;;;;;;;;;;;26.60;23.20;;;;;;5052450;28;77086;-74
2021/03/30 12:37:26;;;;;;;;;;;26.60;23.20;;;;;;5052970;27;75055;-74
2021/03/30 12:39:52;;;;;;;;;;;26.60;23.30;;;;;;5053123;28;75206;-74
2021/03/30 12:42:17;;;;;;;;;;;26.70;23.00;;;;;;5051359;28;78040;-73
2021/03/30 12:44:43;;;;;;;;;;;26.50;22.80;;;;;;5051431;28;78092;-75
2021/03/30 12:47:08;;;;;;;;;;;26.40;22.70;;;;;;5053490;28;74407;-73
2021/03/30 12:49:34;;;;;;;;;;;26.40;23.10;;;;;;5051253;28;76733;-73
2021/03/30 12:52:00;;;;;;;;;;;26.40;22.70;;;;;;5051558;28;77569;-75
2021/03/30 12:54:25;;;;;;;;;;;26.40;23.00;;;;;;5053145;28;75190;-74
2021/03/30 12:56:51;;;;;;;;;;;26.30;22.40;;;;;;5051342;28;76077;-74
2021/03/30 12:59:17;;;;;;;;;;;26.30;22.70;;;;;;5052743;28;75500;-74
2021/03/30 13:01:42;;;;;;;;;;;26.20;22.50;;;;;;5052085;28;75038;-74
2021/03/30 13:04:09;;;;;;;;;;;26.20;22.90;;;;;;5052422;28;75179;-73
2021/03/30 13:06:34;;;;;;;;;;;26.10;23.10;;;;;;5052815;28;74365;-74
2021/03/30 13:09:00;;;;;;;;;;;26.10;23.10;;;;;;5052471;28;74565;-73
2021/03/30 13:11:26;;;;;;;;;;;26.10;22.00;;;;;;5051934;28;76261;-75
2021/03/30 13:13:52;;;;;;;;;;;26.00;22.80;;;;;;5051142;28;75806;-73
2021/03/30 13:16:18;;;;;;;;;;;25.80;22.80;;;;;;5052685;28;75791;-73
2021/03/30 13:18:44;;;;;;;;;;;25.80;22.00;;;;;;5052479;28;75242;-73
2021/03/30 13:21:11;;;;;;;;;;;25.60;22.90;;;;;;5050874;28;75670;-75
2021/03/30 13:23:36;;;;;;;;;;;25.50;23.40;;;;;;5050276;28;77082;-74
2021/03/30 13:26:02;;;;;;;;;;;25.50;23.20;;;;;;5052420;28;75172;-76
2021/03/30 13:28:28;;;;;;;;;;;25.50;23.50;;;;;;5052318;28;75189;-76
2021/03/30 13:30:53;;;;;;;;;;;25.50;22.80;;;;;;5052649;28;74481;-73
2021/03/30 13:33:19;;;;;;;;;;;25.50;23.60;;;;;;5052451;28;75453;-75
2021/03/30 13:35:45;;;;;;;;;;;25.50;23.40;;;;;;5051956;28;75090;-73
2021/03/30 13:38:10;;;;;;;;;;;25.60;23.60;;;;;;5052350;28;74417;-73
2021/03/30 13:40:36;;;;;;;;;;;25.50;23.30;;;;;;5050174;28;76401;-72
2021/03/30 13:43:02;;;;;;;;;;;25.50;23.60;;;;;;5052070;28;74380;-73
2021/03/30 13:45:32;;;;;;;;;;;25.40;23.80;;;;;;5050337;28;76433;-72
2021/03/30 13:47:58;;;;;;;;;;;25.40;23.80;;;;;;5050534;27;78070;-73
2021/03/30 13:50:24;;;;;;;;;;;25.50;23.80;;;;;;5054108;28;78288;-74
2021/03/30 13:52:50;;;;;;;;;;;25.40;23.80;;;;;;5053522;28;76795;-73
2021/03/30 13:55:16;;;;;;;;;;;25.50;23.70;;;;;;5053501;28;77148;-73
2021/03/30 13:57:43;;;;;;;;;;;25.40;23.90;;;;;;5053445;28;78194;-73
2021/03/30 14:00:11;;;;;;;;;;;25.60;23.90;;;;;;5055647;28;74711;-73
2021/03/30 14:02:37;;;;;;;;;;;25.70;24.10;;;;;;5054982;28;75215;-73
2021/03/30 14:05:02;;;;;;;;;;;25.90;23.70;;;;;;5055319;28;75268;-72
2021/03/30 14:07:28;;;;;;;;;;;25.90;23.60;;;;;;5056065;28;74343;-73
2021/03/30 14:09:53;;;;;;;;;;;25.90;23.30;;;;;;5053948;27;77228;-72
2021/03/30 14:12:27;;;;;;;;;;;25.90;23.70;;;;;;5053879;28;78129;-73
2021/03/30 14:15:01;;;;;;;;;;;25.90;23.60;;;;;;5055158;28;75285;-73
2021/03/30 14:20:22;;;;;;;;;;;25.90;23.60;;;;;;5050034;28;75974;-72
2021/03/30 14:22:48;;;;;;;;;;;25.90;23.80;;;;;;5055871;28;75253;-73
2021/03/30 14:25:26;;;;;;;;;;;26.10;23.80;;;;;;5054619;28;75400;-75